• Join FlightAware (Why Join?)
  • Login
  • US Flag 
06:30AM EDT


 

Airport Tracker/Info


-or-


 

Live Flight TrackerFlight Track Log ✈ SKW6345 ✈ 15-Aug-2013 ✈ KBZN - KSFO

Flight Track Log - Related Links

Times and Time Zones

All times are in EDT time to prevent confusion due to time zone crossing. See the SKW6345 flight status page for this flight to view local times or setup timezone preferences in your user account.

Time Position Orientation Groundspeed Altitude Reporting Facility
EDT Latitude Longitude Course Direction KTS MPH feet Rate Location/Type
03:22PM 45.8056 -111.2056 290° West 193 222 5,600  Level Salt Lake Center
03:23PM 45.7803 -111.2867 246° West 241 277 7,500 1,920 Climbing Salt Lake Center
03:24PM 45.7316 -111.5378 282° West  Level FlightAware Approximate
03:24PM 45.7494 -111.3769 244° Southwest 245 282 9,600  Level Salt Lake Center
03:25PM 45.7466 -111.6931 288° West  Level FlightAware Approximate
03:25PM 45.7108 -111.4681 239° Southwest 259 298 11,500  Level Salt Lake Center
03:26PM 45.7784 -111.8359 288° West  Level FlightAware Approximate
03:26PM 45.6547 -111.5536 227° Southwest 286 329 13,200  Level Salt Lake Center
03:27PM 45.8112 -111.9783 290° West  Level FlightAware Approximate
03:27PM 45.5864 -111.6597 227° Southwest 301 346 15,400  Level Salt Lake Center
03:28PM 45.5278 -111.7486 227° Southwest 307 353 17,300 1,200 Climbing Salt Lake Center
03:29PM 45.4686 -111.8381 227° Southwest 309 356 18,000 900 Climbing Salt Lake Center
03:30PM 45.4025 -111.9389 227° Southwest 338 389 19,200 1,200 Climbing Salt Lake Center
03:31PM 45.3361 -112.0381 226° Southwest 347 399 20,500 1,080 Climbing Salt Lake Center
03:32PM 45.2642 -112.1472 227° Southwest 355 409 21,500 960 Climbing Salt Lake Center
03:33PM 45.1878 -112.2622 227° Southwest 358 412 22,500 840 Climbing Salt Lake Center
03:34PM 45.1203 -112.3628 226° Southwest 365 420 23,300 840 Climbing Salt Lake Center
03:35PM 45.0414 -112.4806 227° Southwest 368 423 24,300 720 Climbing Salt Lake Center
03:36PM 44.9728 -112.5828 227° Southwest 373 429 24,800 660 Climbing Salt Lake Center
03:37PM 44.8897 -112.7053 226° Southwest 382 440 25,700 600 Climbing Salt Lake Center
03:38PM 44.8186 -112.8092 226° Southwest 385 443 26,100 540 Climbing Salt Lake Center
03:39PM 44.7333 -112.9350 226° Southwest 395 455 26,900 660 Climbing Salt Lake Center
03:40PM 44.6589 -113.0425 226° Southwest 399 459 27,500 540 Climbing Salt Lake Center
03:41PM 44.5722 -113.1675 226° Southwest 401 461 28,100 420 Climbing Salt Lake Center
03:42PM 44.4978 -113.2767 226° Southwest 403 464 28,400 480 Climbing Salt Lake Center
03:43PM 44.4086 -113.4033 225° Southwest 409 471 29,100 420 Climbing Salt Lake Center
03:44PM 44.3322 -113.5131 226° Southwest 411 473 29,300 240 Climbing Salt Lake Center
03:45PM 44.2550 -113.6225 225° Southwest 413 475 29,700 420 Climbing Salt Lake Center
03:47PM 44.1642 -113.7525 226° Southwest 417 480 30,200 420 Climbing Salt Lake Center
03:48PM 44.0892 -113.8636 227° Southwest 415 478 30,600 480 Climbing Salt Lake Center
03:49PM 43.9917 -113.9967 224° Southwest 419 482 31,200 480 Climbing Salt Lake Center
03:50PM 43.9100 -114.1169 227° Southwest 413 475 31,700 360 Climbing Salt Lake Center
03:51PM 43.8311 -114.2231 224° Southwest 410 472 32,000 120 Climbing Salt Lake Center
03:52PM 43.7456 -114.3411 225° Southwest 416 479 32,000  Level Salt Lake Center
03:53PM 43.6583 -114.4644 226° Southwest 423 487 32,000  Level Salt Lake Center
03:54PM 43.5781 -114.5739 225° Southwest 425 489 32,000  Level Salt Lake Center
03:55PM 43.4858 -114.7031 225° Southwest 425 489 32,000  Level Salt Lake Center
03:56PM 43.3972 -114.8228 224° Southwest 425 489 32,000  Level Salt Lake Center
03:57PM 43.3106 -114.9414 225° Southwest 423 487 32,000  Level Salt Lake Center
03:58PM 43.2297 -115.0503 224° Southwest 423 487 32,000  Level Salt Lake Center
03:59PM 43.1419 -115.1686 225° Southwest 421 484 32,000  Level Salt Lake Center
04:00PM 43.0536 -115.2869 224° Southwest 423 487 32,000  Level Salt Lake Center
04:01PM 42.9656 -115.4039 224° Southwest 424 488 32,000  Level Salt Lake Center
04:02PM 42.8764 -115.5217 224° Southwest 426 490 32,000  Level Salt Lake Center
04:03PM 42.7950 -115.6314 225° Southwest 424 488 32,000  Level Salt Lake Center
04:04PM 42.7064 -115.7483 224° Southwest 425 489 32,000  Level Salt Lake Center
04:05PM 42.6178 -115.8658 224° Southwest 425 489 32,000  Level Salt Lake Center
04:06PM 42.5289 -115.9819 224° Southwest 423 487 32,000  Level Salt Lake Center
04:07PM 42.4406 -116.0981 224° Southwest 423 487 32,000  Level Salt Lake Center
04:08PM 42.3517 -116.2136 224° Southwest 424 488 32,000  Level Salt Lake Center
04:09PM 42.2631 -116.3283 224° Southwest 423 487 32,000  Level Salt Lake Center
04:10PM 42.1808 -116.4344 224° Southwest 423 487 32,000  Level Salt Lake Center
04:11PM 42.0922 -116.5486 224° Southwest 421 484 32,000  Level Salt Lake Center
04:12PM 42.0083 -116.6558 224° Southwest 423 487 32,000  Level Salt Lake Center
04:13PM 41.9128 -116.7781 224° Southwest 425 489 32,000  Level Salt Lake Center
04:14PM 41.8314 -116.8822 224° Southwest 424 488 32,000  Level Salt Lake Center
04:15PM 41.7367 -117.0025 223° Southwest 421 484 32,000  Level Salt Lake Center
04:17PM 41.6553 -117.1047 223° Southwest 420 483 32,000  Level Salt Lake Center
04:18PM 41.5592 -117.2256 223° Southwest 423 487 32,000  Level Salt Lake Center
04:19PM 41.4778 -117.3283 223° Southwest 423 487 32,000  Level Salt Lake Center
04:20PM 41.3811 -117.4481 223° Southwest 425 489 32,000  Level Salt Lake Center
04:21PM 41.2992 -117.5492 223° Southwest 423 487 32,000  Level Salt Lake Center
04:22PM 41.2036 -117.6672 223° Southwest 421 484 32,000  Level Salt Lake Center
04:23PM 41.1217 -117.7681 223° Southwest 421 484 32,000  Level Salt Lake Center
04:24PM 41.0397 -117.8683 223° Southwest 422 486 32,000  Level Salt Lake Center
04:25PM 40.9439 -117.9856 223° Southwest 421 484 32,000  Level Salt Lake Center
04:26PM 40.8617 -118.0861 223° Southwest 421 484 32,000  Level Salt Lake Center
04:27PM 40.7644 -118.2019 222° Southwest 423 487 32,000  Level Salt Lake Center
04:28PM 40.6825 -118.3017 223° Southwest 421 484 32,000  Level Salt Lake Center
04:29PM 40.5864 -118.4161 222° Southwest 418 481 32,000  Level Salt Lake Center
04:30PM 40.5042 -118.5144 222° Southwest 418 481 32,000  Level Salt Lake Center
04:31PM 40.4094 -118.6286 223° Southwest 416 479 32,000  Level Salt Lake Center
04:32PM 40.3458 -118.7467 235° Southwest 419 482 32,000  Level Salt Lake Center
04:33PM 40.2897 -118.8969 244° Southwest 413 475 32,000  Level Salt Lake Center
04:34PM 40.2406 -119.0325 245° Southwest 412 474 32,000  Level Oakland Center
04:35PM 40.1897 -119.1661 244° Southwest 412 474 32,000  Level Oakland Center
04:36PM 40.1294 -119.3264 244° Southwest 411 473 32,000  Level Oakland Center
04:37PM 40.0794 -119.4600 244° Southwest 412 474 32,000  Level Oakland Center
04:38PM 40.0289 -119.5931 244° Southwest 412 474 32,000  Level Oakland Center
04:39PM 39.9786 -119.7267 244° Southwest 412 474 32,000  Level Oakland Center
04:40PM 39.9292 -119.8603 244° Southwest 411 473 32,000  Level Oakland Center
04:41PM 39.8775 -119.9936 243° Southwest 413 475 32,000  Level Oakland Center
04:42PM 39.8244 -120.1339 244° Southwest 415 478 32,000  Level Oakland Center
04:43PM 39.7725 -120.2664 243° Southwest 412 474 32,000  Level Oakland Center
04:44PM 39.7214 -120.3981 243° Southwest 409 471 32,000  Level Oakland Center
04:45PM 39.6597 -120.5536 243° Southwest 406 467 32,000  Level Oakland Center
04:46PM 39.6100 -120.6839 244° Southwest 403 464 32,000  Level Oakland Center
04:47PM 39.5419 -120.7972 232° Southwest 401 461 32,000  Level Oakland Center
04:49PM 39.4686 -120.9044 228° Southwest 401 461 32,000  Level Oakland Center
04:50PM 39.3961 -121.0117 229° Southwest 397 457 32,000  Level Oakland Center
04:51PM 39.3228 -121.1169 228° Southwest 396 456 32,000  Level Oakland Center
04:52PM 39.2494 -121.2236 228° Southwest 398 458 32,000  Level Oakland Center
04:53PM 39.1622 -121.3506 228° Southwest 396 456 32,000  Level Oakland Center
04:54PM 39.0889 -121.4556 228° Southwest 396 456 32,000  Level Oakland Center
04:55PM 39.0153 -121.5603 228° Southwest 396 456 32,000  Level Oakland Center
04:56PM 38.9422 -121.6642 228° Southwest 394 453 32,000  Level Oakland Center
04:57PM 38.8686 -121.7683 228° Southwest 395 455 32,000  Level Oakland Center
04:58PM 38.7956 -121.8719 228° Southwest 395 455 32,000  Level Oakland Center
04:59PM 38.7078 -121.9953 228° Southwest 393 452 32,000  Level Oakland Center
05:00PM 38.6425 -122.0883 228° Southwest 392 451 32,000 -660 Level Oakland Center
05:01PM 38.5669 -122.1917 227° Southwest 398 458 30,700 -1,920 Descending Oakland Center
05:02PM 38.4867 -122.3031 227° Southwest 422 486 28,100 -3,180 Descending Oakland Center
05:03PM 38.3619 -122.3872 208° Southwest 424 488 24,300 -3,420 Descending Oakland Center
05:04PM 38.2619 -122.4494 206° Southwest 408 470 21,100 -3,120 Descending Oakland Center
05:05PM 38.1647 -122.5092 206° Southwest 395 455 17,900 -3,180 Descending Oakland Center
05:06PM 38.0731 -122.5669 206° Southwest 375 432 14,700 -3,180 Descending Oakland Center
05:07PM 37.9853 -122.6211 206° Southwest 361 415 11,500 -1,860 Descending Oakland Center
05:08PM 37.8831 -122.6475 192° South 341 392 10,900 -300 Descending Oakland Center
05:09PM 37.8094 -122.5758 142° Southeast 341 392 10,900  Level Oakland Center
05:10PM 37.7381 -122.5008 140° Southeast 337 388 10,900  Level Oakland Center
05:11PM 37.6828 -122.4425 140° Southeast 272 313 10,900  Level Oakland Center
05:12PM 37.6197 -122.3753 140° Southeast 252 290 10,900 -660 Level Oakland Center
05:13PM 37.5617 -122.3331 150° Southeast 243 280 9,600 -1,320 Descending Oakland Center
05:14PM 37.5011 -122.2933 153° Southeast 244 281 8,200 -1,200 Descending Oakland Center
05:15PM 37.4431 -122.2531 151° Southeast 240 276 7,200 -1,260 Descending Oakland Center
05:16PM 37.4311 -122.1697 100° East 242 278 5,700 -1,200 Descending Oakland Center
05:17PM 37.4853 -122.1497 16° North 230 265 4,800 -1,080 Descending Oakland Center
05:18PM 37.5372 -122.1900 328° Northwest 194 223 3,500 -1,140 Descending Oakland Center
05:19PM 37.5608 -122.2386 302° West 176 203 2,500 -1,020 Descending Oakland Center
05:20PM 37.5800 -122.2842 298° West 159 183 1,500 -900 Descending Oakland Center
05:21PM 37.5972 -122.3253 298° West 145 167 700 -660 Descending Oakland Center
05:22PM 37.6169 -122.3703 299° West 140 161 200 -540 Descending Oakland Center